sensor_id;sensor_type;location;lat;lon;timestamp;P1;durP1;ratioP1;P2;durP2;ratioP2
48935;SDS011;34745;52.276;10.528;2023-04-24T00:02:05;1.47;;;1.37;;
48935;SDS011;34745;52.276;10.528;2023-04-24T00:04:33;1.63;;;1.50;;
48935;SDS011;34745;52.276;10.528;2023-04-24T00:07:00;2.23;;;1.30;;
48935;SDS011;34745;52.276;10.528;2023-04-24T00:09:27;1.70;;;1.60;;
48935;SDS011;34745;52.276;10.528;2023-04-24T00:11:54;1.63;;;1.53;;
48935;SDS011;34745;52.276;10.528;2023-04-24T00:14:22;1.70;;;1.60;;
48935;SDS011;34745;52.276;10.528;2023-04-24T00:16:49;1.30;;;1.30;;
48935;SDS011;34745;52.276;10.528;2023-04-24T00:19:18;1.40;;;1.20;;
48935;SDS011;34745;52.276;10.528;2023-04-24T00:21:47;1.40;;;1.30;;
48935;SDS011;34745;52.276;10.528;2023-04-24T00:24:16;3.37;;;1.60;;
48935;SDS011;34745;52.276;10.528;2023-04-24T00:26:44;1.23;;;1.13;;
48935;SDS011;34745;52.276;10.528;2023-04-24T00:29:11;4.00;;;1.40;;
48935;SDS011;34745;52.276;10.528;2023-04-24T00:31:38;2.20;;;1.30;;
48935;SDS011;34745;52.276;10.528;2023-04-24T00:34:06;1.70;;;1.57;;
48935;SDS011;34745;52.276;10.528;2023-04-24T00:36:35;1.50;;;1.40;;
48935;SDS011;34745;52.276;10.528;2023-04-24T00:39:02;1.30;;;1.20;;
48935;SDS011;34745;52.276;10.528;2023-04-24T00:41:29;5.87;;;2.20;;
48935;SDS011;34745;52.276;10.528;2023-04-24T00:43:56;4.83;;;2.47;;
48935;SDS011;34745;52.276;10.528;2023-04-24T00:46:23;6.83;;;3.67;;
48935;SDS011;34745;52.276;10.528;2023-04-24T00:48:51;6.03;;;3.30;;
48935;SDS011;34745;52.276;10.528;2023-04-24T00:51:18;10.30;;;4.50;;
48935;SDS011;34745;52.276;10.528;2023-04-24T00:53:46;10.57;;;4.77;;
48935;SDS011;34745;52.276;10.528;2023-04-24T00:56:13;13.00;;;5.03;;
48935;SDS011;34745;52.276;10.528;2023-04-24T00:58:40;12.03;;;4.93;;
48935;SDS011;34745;52.276;10.528;2023-04-24T01:01:08;12.63;;;5.47;;
48935;SDS011;34745;52.276;10.528;2023-04-24T01:03:36;14.87;;;5.20;;
48935;SDS011;34745;52.276;10.528;2023-04-24T01:06:04;14.57;;;4.70;;
48935;SDS011;34745;52.276;10.528;2023-04-24T01:08:32;8.40;;;3.97;;
48935;SDS011;34745;52.276;10.528;2023-04-24T01:11:02;5.80;;;3.97;;
48935;SDS011;34745;52.276;10.528;2023-04-24T01:13:30;7.73;;;3.70;;
48935;SDS011;34745;52.276;10.528;2023-04-24T01:15:58;11.80;;;3.50;;
48935;SDS011;34745;52.276;10.528;2023-04-24T01:18:25;4.43;;;2.47;;
48935;SDS011;34745;52.276;10.528;2023-04-24T01:20:53;4.40;;;2.80;;
48935;SDS011;34745;52.276;10.528;2023-04-24T01:23:24;8.50;;;3.93;;
48935;SDS011;34745;52.276;10.528;2023-04-24T01:25:52;11.77;;;3.43;;
48935;SDS011;34745;52.276;10.528;2023-04-24T01:28:19;7.33;;;3.37;;
48935;SDS011;34745;52.276;10.528;2023-04-24T01:30:46;11.03;;;3.87;;
48935;SDS011;34745;52.276;10.528;2023-04-24T01:33:14;9.53;;;3.40;;
48935;SDS011;34745;52.276;10.528;2023-04-24T01:35:41;9.07;;;3.87;;
48935;SDS011;34745;52.276;10.528;2023-04-24T01:38:08;11.00;;;3.73;;
48935;SDS011;34745;52.276;10.528;2023-04-24T01:40:37;9.03;;;3.60;;
48935;SDS011;34745;52.276;10.528;2023-04-24T01:43:04;11.27;;;3.90;;
48935;SDS011;34745;52.276;10.528;2023-04-24T01:45:31;7.13;;;3.63;;
48935;SDS011;34745;52.276;10.528;2023-04-24T01:47:59;7.03;;;3.90;;
48935;SDS011;34745;52.276;10.528;2023-04-24T01:50:27;15.83;;;3.73;;
48935;SDS011;34745;52.276;10.528;2023-04-24T01:52:54;9.30;;;3.60;;
48935;SDS011;34745;52.276;10.528;2023-04-24T01:55:21;6.97;;;3.40;;
48935;SDS011;34745;52.276;10.528;2023-04-24T01:57:50;5.23;;;2.83;;
48935;SDS011;34745;52.276;10.528;2023-04-24T02:00:20;4.43;;;2.70;;
48935;SDS011;34745;52.276;10.528;2023-04-24T02:02:47;7.23;;;2.30;;
48935;SDS011;34745;52.276;10.528;2023-04-24T02:05:14;4.40;;;2.23;;
48935;SDS011;34745;52.276;10.528;2023-04-24T02:07:41;2.57;;;2.27;;
48935;SDS011;34745;52.276;10.528;2023-04-24T02:10:09;6.80;;;2.47;;
48935;SDS011;34745;52.276;10.528;2023-04-24T02:12:36;5.93;;;2.00;;
48935;SDS011;34745;52.276;10.528;2023-04-24T02:15:05;2.20;;;1.90;;
48935;SDS011;34745;52.276;10.528;2023-04-24T02:17:32;2.47;;;1.90;;
48935;SDS011;34745;52.276;10.528;2023-04-24T02:19:59;4.77;;;1.80;;
48935;SDS011;34745;52.276;10.528;2023-04-24T02:22:26;3.33;;;2.00;;
48935;SDS011;34745;52.276;10.528;2023-04-24T02:24:53;2.47;;;1.73;;
48935;SDS011;34745;52.276;10.528;2023-04-24T02:27:20;4.83;;;1.97;;
48935;SDS011;34745;52.276;10.528;2023-04-24T02:29:48;3.03;;;1.90;;
48935;SDS011;34745;52.276;10.528;2023-04-24T02:32:16;4.67;;;1.90;;
48935;SDS011;34745;52.276;10.528;2023-04-24T02:34:43;2.80;;;1.60;;
48935;SDS011;34745;52.276;10.528;2023-04-24T02:37:10;4.07;;;1.83;;
48935;SDS011;34745;52.276;10.528;2023-04-24T02:39:37;1.70;;;1.40;;
48935;SDS011;34745;52.276;10.528;2023-04-24T02:42:04;2.00;;;1.83;;
48935;SDS011;34745;52.276;10.528;2023-04-24T02:44:31;1.67;;;1.37;;
48935;SDS011;34745;52.276;10.528;2023-04-24T02:46:58;1.27;;;1.23;;
48935;SDS011;34745;52.276;10.528;2023-04-24T02:49:26;3.20;;;1.40;;
48935;SDS011;34745;52.276;10.528;2023-04-24T02:51:54;2.53;;;1.20;;
48935;SDS011;34745;52.276;10.528;2023-04-24T02:54:21;2.70;;;1.60;;
48935;SDS011;34745;52.276;10.528;2023-04-24T02:56:48;1.90;;;1.63;;
48935;SDS011;34745;52.276;10.528;2023-04-24T02:59:15;1.97;;;1.40;;
48935;SDS011;34745;52.276;10.528;2023-04-24T03:01:42;3.80;;;1.30;;
48935;SDS011;34745;52.276;10.528;2023-04-24T03:04:09;1.70;;;1.60;;
48935;SDS011;34745;52.276;10.528;2023-04-24T03:06:38;1.43;;;1.33;;
48935;SDS011;34745;52.276;10.528;2023-04-24T03:09:05;1.77;;;1.67;;
48935;SDS011;34745;52.276;10.528;2023-04-24T03:11:33;2.27;;;1.50;;
48935;SDS011;34745;52.276;10.528;2023-04-24T03:14:00;2.20;;;1.60;;
48935;SDS011;34745;52.276;10.528;2023-04-24T03:16:27;4.20;;;1.50;;
48935;SDS011;34745;52.276;10.528;2023-04-24T03:18:54;1.63;;;1.50;;
48935;SDS011;34745;52.276;10.528;2023-04-24T03:21:21;3.03;;;1.83;;
48935;SDS011;34745;52.276;10.528;2023-04-24T03:23:50;3.63;;;1.60;;
48935;SDS011;34745;52.276;10.528;2023-04-24T03:26:16;6.73;;;2.37;;
48935;SDS011;34745;52.276;10.528;2023-04-24T03:28:43;9.20;;;2.60;;
48935;SDS011;34745;52.276;10.528;2023-04-24T03:31:10;6.60;;;2.83;;
48935;SDS011;34745;52.276;10.528;2023-04-24T03:33:37;5.53;;;2.07;;
48935;SDS011;34745;52.276;10.528;2023-04-24T03:36:04;2.47;;;1.90;;
48935;SDS011;34745;52.276;10.528;2023-04-24T03:38:31;2.33;;;2.00;;
48935;SDS011;34745;52.276;10.528;2023-04-24T03:41:00;4.20;;;2.10;;
48935;SDS011;34745;52.276;10.528;2023-04-24T03:43:27;7.73;;;1.73;;
48935;SDS011;34745;52.276;10.528;2023-04-24T03:45:53;2.53;;;1.80;;
48935;SDS011;34745;52.276;10.528;2023-04-24T03:48:20;7.03;;;2.77;;
48935;SDS011;34745;52.276;10.528;2023-04-24T03:50:47;2.43;;;1.67;;
48935;SDS011;34745;52.276;10.528;2023-04-24T03:53:14;2.83;;;1.57;;
48935;SDS011;34745;52.276;10.528;2023-04-24T03:55:41;4.07;;;2.00;;
48935;SDS011;34745;52.276;10.528;2023-04-24T03:58:10;2.50;;;2.20;;
48935;SDS011;34745;52.276;10.528;2023-04-24T04:00:37;4.53;;;1.80;;
48935;SDS011;34745;52.276;10.528;2023-04-24T04:03:06;4.63;;;2.60;;
48935;SDS011;34745;52.276;10.528;2023-04-24T04:05:33;4.67;;;1.70;;
48935;SDS011;34745;52.276;10.528;2023-04-24T04:08:01;2.23;;;1.70;;
48935;SDS011;34745;52.276;10.528;2023-04-24T04:10:28;2.20;;;1.70;;
48935;SDS011;34745;52.276;10.528;2023-04-24T04:12:55;1.30;;;1.20;;
48935;SDS011;34745;52.276;10.528;2023-04-24T04:15:23;2.13;;;1.23;;
48935;SDS011;34745;52.276;10.528;2023-04-24T04:17:50;1.53;;;1.27;;
48935;SDS011;34745;52.276;10.528;2023-04-24T04:20:17;4.93;;;1.70;;
48935;SDS011;34745;52.276;10.528;2023-04-24T04:22:45;3.30;;;1.30;;
48935;SDS011;34745;52.276;10.528;2023-04-24T04:25:11;2.73;;;1.50;;
48935;SDS011;34745;52.276;10.528;2023-04-24T04:27:40;2.87;;;1.33;;
48935;SDS011;34745;52.276;10.528;2023-04-24T04:30:08;3.47;;;1.53;;
48935;SDS011;34745;52.276;10.528;2023-04-24T04:32:37;3.87;;;1.50;;
48935;SDS011;34745;52.276;10.528;2023-04-24T04:35:04;7.97;;;1.57;;
48935;SDS011;34745;52.276;10.528;2023-04-24T04:37:32;2.57;;;1.60;;
48935;SDS011;34745;52.276;10.528;2023-04-24T04:39:59;3.27;;;1.50;;
48935;SDS011;34745;52.276;10.528;2023-04-24T04:42:27;5.73;;;1.30;;
48935;SDS011;34745;52.276;10.528;2023-04-24T04:44:55;1.53;;;1.43;;
48935;SDS011;34745;52.276;10.528;2023-04-24T04:47:23;2.07;;;1.50;;
48935;SDS011;34745;52.276;10.528;2023-04-24T04:49:52;3.20;;;1.47;;
48935;SDS011;34745;52.276;10.528;2023-04-24T04:52:19;6.83;;;1.40;;
48935;SDS011;34745;52.276;10.528;2023-04-24T04:54:46;2.57;;;1.37;;
48935;SDS011;34745;52.276;10.528;2023-04-24T04:57:13;4.77;;;1.60;;
48935;SDS011;34745;52.276;10.528;2023-04-24T04:59:40;4.00;;;1.90;;
48935;SDS011;34745;52.276;10.528;2023-04-24T05:02:08;5.40;;;1.50;;
48935;SDS011;34745;52.276;10.528;2023-04-24T05:04:36;2.50;;;1.80;;
48935;SDS011;34745;52.276;10.528;2023-04-24T05:07:04;5.47;;;2.20;;
48935;SDS011;34745;52.276;10.528;2023-04-24T05:09:32;5.57;;;2.23;;
48935;SDS011;34745;52.276;10.528;2023-04-24T05:11:59;4.63;;;2.20;;
48935;SDS011;34745;52.276;10.528;2023-04-24T05:14:26;7.00;;;2.47;;
48935;SDS011;34745;52.276;10.528;2023-04-24T05:16:53;6.47;;;2.87;;
48935;SDS011;34745;52.276;10.528;2023-04-24T05:19:20;3.33;;;2.20;;
48935;SDS011;34745;52.276;10.528;2023-04-24T05:21:48;5.93;;;1.97;;
48935;SDS011;34745;52.276;10.528;2023-04-24T05:24:16;5.60;;;2.10;;
48935;SDS011;34745;52.276;10.528;2023-04-24T05:26:43;7.00;;;2.23;;
48935;SDS011;34745;52.276;10.528;2023-04-24T05:29:10;2.47;;;1.80;;
48935;SDS011;34745;52.276;10.528;2023-04-24T05:31:38;2.20;;;1.80;;
48935;SDS011;34745;52.276;10.528;2023-04-24T05:34:05;5.27;;;2.20;;
48935;SDS011;34745;52.276;10.528;2023-04-24T05:36:32;4.90;;;1.77;;
48935;SDS011;34745;52.276;10.528;2023-04-24T05:38:59;1.60;;;1.50;;
48935;SDS011;34745;52.276;10.528;2023-04-24T05:41:27;1.93;;;1.20;;
48935;SDS011;34745;52.276;10.528;2023-04-24T05:43:54;1.60;;;1.50;;
48935;SDS011;34745;52.276;10.528;2023-04-24T05:46:21;5.00;;;1.33;;
48935;SDS011;34745;52.276;10.528;2023-04-24T05:48:48;3.93;;;1.63;;
48935;SDS011;34745;52.276;10.528;2023-04-24T05:51:15;3.73;;;1.40;;
48935;SDS011;34745;52.276;10.528;2023-04-24T05:53:42;3.57;;;1.60;;
48935;SDS011;34745;52.276;10.528;2023-04-24T05:56:09;1.73;;;1.40;;
48935;SDS011;34745;52.276;10.528;2023-04-24T05:58:37;3.43;;;1.50;;
48935;SDS011;34745;52.276;10.528;2023-04-24T06:01:06;1.77;;;1.67;;
48935;SDS011;34745;52.276;10.528;2023-04-24T06:03:33;1.57;;;1.27;;
48935;SDS011;34745;52.276;10.528;2023-04-24T06:06:00;2.43;;;1.87;;
48935;SDS011;34745;52.276;10.528;2023-04-24T06:08:27;6.37;;;2.13;;
48935;SDS011;34745;52.276;10.528;2023-04-24T06:10:54;1.43;;;1.33;;
48935;SDS011;34745;52.276;10.528;2023-04-24T06:13:21;2.03;;;1.83;;
48935;SDS011;34745;52.276;10.528;2023-04-24T06:15:50;2.60;;;1.60;;
48935;SDS011;34745;52.276;10.528;2023-04-24T06:18:17;2.07;;;1.50;;
48935;SDS011;34745;52.276;10.528;2023-04-24T06:20:44;2.40;;;1.50;;
48935;SDS011;34745;52.276;10.528;2023-04-24T06:23:12;4.37;;;1.70;;
48935;SDS011;34745;52.276;10.528;2023-04-24T06:25:39;4.70;;;1.73;;
48935;SDS011;34745;52.276;10.528;2023-04-24T06:28:06;1.73;;;1.60;;
48935;SDS011;34745;52.276;10.528;2023-04-24T06:30:33;5.70;;;1.93;;
48935;SDS011;34745;52.276;10.528;2023-04-24T06:33:01;2.77;;;1.63;;
48935;SDS011;34745;52.276;10.528;2023-04-24T06:35:45;4.60;;;1.50;;
48935;SDS011;34745;52.276;10.528;2023-04-24T06:38:16;3.07;;;1.77;;
48935;SDS011;34745;52.276;10.528;2023-04-24T06:40:42;4.70;;;1.57;;
48935;SDS011;34745;52.276;10.528;2023-04-24T06:43:09;1.50;;;1.30;;
48935;SDS011;34745;52.276;10.528;2023-04-24T06:45:37;1.77;;;1.40;;
48935;SDS011;34745;52.276;10.528;2023-04-24T06:48:07;2.43;;;1.33;;
48935;SDS011;34745;52.276;10.528;2023-04-24T06:50:34;1.53;;;1.43;;
48935;SDS011;34745;52.276;10.528;2023-04-24T06:53:01;1.90;;;1.50;;
48935;SDS011;34745;52.276;10.528;2023-04-24T06:55:28;4.83;;;1.83;;
48935;SDS011;34745;52.276;10.528;2023-04-24T06:57:56;2.87;;;1.60;;
48935;SDS011;34745;52.276;10.528;2023-04-24T07:00:23;3.23;;;1.90;;
48935;SDS011;34745;52.276;10.528;2023-04-24T07:02:50;2.40;;;1.80;;
48935;SDS011;34745;52.276;10.528;2023-04-24T07:05:19;3.47;;;2.27;;
48935;SDS011;34745;52.276;10.528;2023-04-24T07:07:46;3.57;;;1.93;;
48935;SDS011;34745;52.276;10.528;2023-04-24T07:10:13;3.73;;;2.17;;
48935;SDS011;34745;52.276;10.528;2023-04-24T07:12:41;2.17;;;1.97;;
48935;SDS011;34745;52.276;10.528;2023-04-24T07:15:08;3.60;;;1.77;;
48935;SDS011;34745;52.276;10.528;2023-04-24T07:17:37;2.20;;;1.73;;
48935;SDS011;34745;52.276;10.528;2023-04-24T07:20:05;2.73;;;1.80;;
48935;SDS011;34745;52.276;10.528;2023-04-24T07:22:37;1.70;;;1.60;;
48935;SDS011;34745;52.276;10.528;2023-04-24T07:25:04;4.53;;;1.70;;
48935;SDS011;34745;52.276;10.528;2023-04-24T07:27:32;1.57;;;1.40;;
48935;SDS011;34745;52.276;10.528;2023-04-24T07:30:00;1.67;;;1.57;;
48935;SDS011;34745;52.276;10.528;2023-04-24T07:32:27;2.53;;;1.50;;
48935;SDS011;34745;52.276;10.528;2023-04-24T07:34:54;1.60;;;1.50;;
48935;SDS011;34745;52.276;10.528;2023-04-24T07:37:22;1.70;;;1.50;;
48935;SDS011;34745;52.276;10.528;2023-04-24T07:39:51;2.03;;;1.63;;
48935;SDS011;34745;52.276;10.528;2023-04-24T07:42:18;1.63;;;1.53;;
48935;SDS011;34745;52.276;10.528;2023-04-24T07:44:45;1.93;;;1.77;;
48935;SDS011;34745;52.276;10.528;2023-04-24T07:47:14;6.93;;;2.07;;
48935;SDS011;34745;52.276;10.528;2023-04-24T07:49:42;2.70;;;2.03;;
48935;SDS011;34745;52.276;10.528;2023-04-24T07:52:10;2.50;;;2.30;;
48935;SDS011;34745;52.276;10.528;2023-04-24T07:54:37;2.40;;;2.20;;
48935;SDS011;34745;52.276;10.528;2023-04-24T07:57:05;2.30;;;2.10;;
48935;SDS011;34745;52.276;10.528;2023-04-24T07:59:34;2.23;;;2.07;;
48935;SDS011;34745;52.276;10.528;2023-04-24T08:02:01;2.20;;;2.00;;
48935;SDS011;34745;52.276;10.528;2023-04-24T08:04:28;2.30;;;2.10;;
48935;SDS011;34745;52.276;10.528;2023-04-24T08:06:55;2.33;;;2.23;;
48935;SDS011;34745;52.276;10.528;2023-04-24T08:09:22;3.53;;;2.20;;
48935;SDS011;34745;52.276;10.528;2023-04-24T08:11:51;2.93;;;1.70;;
48935;SDS011;34745;52.276;10.528;2023-04-24T08:14:20;2.60;;;2.33;;
48935;SDS011;34745;52.276;10.528;2023-04-24T08:16:47;3.50;;;2.20;;
48935;SDS011;34745;52.276;10.528;2023-04-24T08:19:14;3.17;;;2.30;;
48935;SDS011;34745;52.276;10.528;2023-04-24T08:21:42;2.23;;;2.00;;
48935;SDS011;34745;52.276;10.528;2023-04-24T08:24:08;3.87;;;1.93;;
48935;SDS011;34745;52.276;10.528;2023-04-24T08:26:35;6.57;;;4.53;;
48935;SDS011;34745;52.276;10.528;2023-04-24T08:29:02;7.93;;;4.50;;
48935;SDS011;34745;52.276;10.528;2023-04-24T08:31:31;2.90;;;2.17;;
48935;SDS011;34745;52.276;10.528;2023-04-24T08:33:58;2.07;;;1.97;;
48935;SDS011;34745;52.276;10.528;2023-04-24T08:36:26;4.60;;;2.50;;
48935;SDS011;34745;52.276;10.528;2023-04-24T08:39:09;3.17;;;2.30;;
48935;SDS011;34745;52.276;10.528;2023-04-24T08:41:36;3.37;;;2.20;;
48935;SDS011;34745;52.276;10.528;2023-04-24T08:44:04;3.40;;;2.20;;
48935;SDS011;34745;52.276;10.528;2023-04-24T08:46:35;4.07;;;2.33;;
48935;SDS011;34745;52.276;10.528;2023-04-24T08:49:02;4.03;;;2.60;;
48935;SDS011;34745;52.276;10.528;2023-04-24T08:51:31;3.63;;;2.47;;
48935;SDS011;34745;52.276;10.528;2023-04-24T08:53:57;4.30;;;2.47;;
48935;SDS011;34745;52.276;10.528;2023-04-24T08:56:25;2.70;;;2.60;;
48935;SDS011;34745;52.276;10.528;2023-04-24T08:58:53;4.80;;;2.80;;
48935;SDS011;34745;52.276;10.528;2023-04-24T09:01:21;4.70;;;3.00;;
48935;SDS011;34745;52.276;10.528;2023-04-24T09:03:51;2.90;;;2.70;;
48935;SDS011;34745;52.276;10.528;2023-04-24T09:06:21;4.63;;;2.73;;
48935;SDS011;34745;52.276;10.528;2023-04-24T09:08:49;3.90;;;3.20;;
48935;SDS011;34745;52.276;10.528;2023-04-24T09:11:20;5.23;;;2.97;;
48935;SDS011;34745;52.276;10.528;2023-04-24T09:13:47;4.20;;;3.07;;
48935;SDS011;34745;52.276;10.528;2023-04-24T09:16:15;3.83;;;3.40;;
48935;SDS011;34745;52.276;10.528;2023-04-24T09:18:42;3.90;;;2.70;;
48935;SDS011;34745;52.276;10.528;2023-04-24T09:21:10;3.53;;;3.00;;
48935;SDS011;34745;52.276;10.528;2023-04-24T09:23:38;4.03;;;2.83;;
48935;SDS011;34745;52.276;10.528;2023-04-24T09:26:05;4.70;;;3.40;;
48935;SDS011;34745;52.276;10.528;2023-04-24T09:28:33;4.30;;;3.87;;
48935;SDS011;34745;52.276;10.528;2023-04-24T09:31:03;3.70;;;3.40;;
48935;SDS011;34745;52.276;10.528;2023-04-24T09:33:31;4.00;;;3.70;;
48935;SDS011;34745;52.276;10.528;2023-04-24T09:35:58;4.30;;;3.50;;
48935;SDS011;34745;52.276;10.528;2023-04-24T09:38:36;3.83;;;3.53;;
48935;SDS011;34745;52.276;10.528;2023-04-24T09:41:04;4.83;;;4.37;;
48935;SDS011;34745;52.276;10.528;2023-04-24T09:43:33;4.60;;;3.37;;
48935;SDS011;34745;52.276;10.528;2023-04-24T09:46:04;4.10;;;3.70;;
48935;SDS011;34745;52.276;10.528;2023-04-24T09:48:33;5.17;;;3.80;;
48935;SDS011;34745;52.276;10.528;2023-04-24T09:51:01;4.37;;;3.07;;
48935;SDS011;34745;52.276;10.528;2023-04-24T09:53:30;3.70;;;3.30;;
48935;SDS011;34745;52.276;10.528;2023-04-24T09:56:03;4.03;;;3.43;;
48935;SDS011;34745;52.276;10.528;2023-04-24T09:58:34;4.10;;;3.20;;
48935;SDS011;34745;52.276;10.528;2023-04-24T10:01:02;5.17;;;3.50;;
48935;SDS011;34745;52.276;10.528;2023-04-24T10:03:29;3.87;;;3.57;;
48935;SDS011;34745;52.276;10.528;2023-04-24T10:05:58;4.70;;;2.93;;
48935;SDS011;34745;52.276;10.528;2023-04-24T10:08:25;2.97;;;2.70;;
48935;SDS011;34745;52.276;10.528;2023-04-24T10:10:59;3.20;;;2.90;;
48935;SDS011;34745;52.276;10.528;2023-04-24T10:13:27;3.63;;;2.90;;
48935;SDS011;34745;52.276;10.528;2023-04-24T10:15:55;2.97;;;2.70;;
48935;SDS011;34745;52.276;10.528;2023-04-24T10:18:24;5.67;;;2.63;;
48935;SDS011;34745;52.276;10.528;2023-04-24T10:20:52;3.03;;;2.70;;
48935;SDS011;34745;52.276;10.528;2023-04-24T10:23:21;3.50;;;2.90;;
48935;SDS011;34745;52.276;10.528;2023-04-24T10:25:49;3.20;;;3.00;;
48935;SDS011;34745;52.276;10.528;2023-04-24T10:28:18;2.80;;;2.60;;
48935;SDS011;34745;52.276;10.528;2023-04-24T10:30:48;2.90;;;2.60;;
48935;SDS011;34745;52.276;10.528;2023-04-24T10:33:17;3.30;;;3.00;;
48935;SDS011;34745;52.276;10.528;2023-04-24T10:35:45;3.77;;;3.30;;
48935;SDS011;34745;52.276;10.528;2023-04-24T10:38:17;3.10;;;2.80;;
48935;SDS011;34745;52.276;10.528;2023-04-24T10:40:50;3.17;;;2.87;;
48935;SDS011;34745;52.276;10.528;2023-04-24T10:43:17;2.80;;;2.60;;
48935;SDS011;34745;52.276;10.528;2023-04-24T10:48:29;3.20;;;2.93;;
48935;SDS011;34745;52.276;10.528;2023-04-24T10:50:58;4.13;;;3.17;;
48935;SDS011;34745;52.276;10.528;2023-04-24T10:53:27;3.00;;;2.73;;
48935;SDS011;34745;52.276;10.528;2023-04-24T10:55:57;2.70;;;2.37;;
48935;SDS011;34745;52.276;10.528;2023-04-24T10:58:26;3.80;;;2.23;;
48935;SDS011;34745;52.276;10.528;2023-04-24T11:01:05;2.70;;;2.40;;
48935;SDS011;34745;52.276;10.528;2023-04-24T11:03:34;1.87;;;1.77;;
48935;SDS011;34745;52.276;10.528;2023-04-24T11:06:03;3.80;;;1.90;;
48935;SDS011;34745;52.276;10.528;2023-04-24T11:08:32;4.90;;;2.07;;
48935;SDS011;34745;52.276;10.528;2023-04-24T11:11:08;2.00;;;1.90;;
48935;SDS011;34745;52.276;10.528;2023-04-24T11:16:35;1.80;;;1.60;;
48935;SDS011;34745;52.276;10.528;2023-04-24T11:19:06;3.73;;;1.90;;
48935;SDS011;34745;52.276;10.528;2023-04-24T11:21:41;4.70;;;1.77;;
48935;SDS011;34745;52.276;10.528;2023-04-24T11:24:25;3.83;;;2.10;;
48935;SDS011;34745;52.276;10.528;2023-04-24T11:27:05;2.13;;;1.93;;
48935;SDS011;34745;52.276;10.528;2023-04-24T11:29:44;2.00;;;1.80;;
48935;SDS011;34745;52.276;10.528;2023-04-24T11:35:03;1.80;;;1.70;;
48935;SDS011;34745;52.276;10.528;2023-04-24T11:37:36;1.87;;;1.77;;
48935;SDS011;34745;52.276;10.528;2023-04-24T11:40:04;2.03;;;1.90;;
48935;SDS011;34745;52.276;10.528;2023-04-24T11:42:35;2.47;;;1.93;;
48935;SDS011;34745;52.276;10.528;2023-04-24T11:45:07;2.87;;;1.93;;
48935;SDS011;34745;52.276;10.528;2023-04-24T11:47:36;2.60;;;1.60;;
48935;SDS011;34745;52.276;10.528;2023-04-24T11:50:04;1.83;;;1.70;;
48935;SDS011;34745;52.276;10.528;2023-04-24T11:52:33;2.10;;;1.90;;
48935;SDS011;34745;52.276;10.528;2023-04-24T11:55:04;2.10;;;1.70;;
48935;SDS011;34745;52.276;10.528;2023-04-24T11:57:32;4.47;;;1.60;;
48935;SDS011;34745;52.276;10.528;2023-04-24T12:00:00;1.83;;;1.70;;
48935;SDS011;34745;52.276;10.528;2023-04-24T12:02:30;2.10;;;1.80;;
48935;SDS011;34745;52.276;10.528;2023-04-24T12:04:59;2.03;;;1.93;;
48935;SDS011;34745;52.276;10.528;2023-04-24T12:07:26;2.83;;;1.70;;
48935;SDS011;34745;52.276;10.528;2023-04-24T12:09:57;1.97;;;1.77;;
48935;SDS011;34745;52.276;10.528;2023-04-24T12:12:26;2.30;;;2.07;;
48935;SDS011;34745;52.276;10.528;2023-04-24T12:14:55;3.00;;;2.10;;
48935;SDS011;34745;52.276;10.528;2023-04-24T12:17:24;2.23;;;2.10;;
48935;SDS011;34745;52.276;10.528;2023-04-24T12:19:57;2.47;;;2.00;;
48935;SDS011;34745;52.276;10.528;2023-04-24T12:22:27;2.27;;;2.07;;
48935;SDS011;34745;52.276;10.528;2023-04-24T12:24:57;3.53;;;1.80;;
48935;SDS011;34745;52.276;10.528;2023-04-24T12:27:28;2.20;;;2.00;;
48935;SDS011;34745;52.276;10.528;2023-04-24T12:29:57;1.90;;;1.80;;
48935;SDS011;34745;52.276;10.528;2023-04-24T12:32:25;2.10;;;1.90;;
48935;SDS011;34745;52.276;10.528;2023-04-24T12:34:54;1.90;;;1.80;;
48935;SDS011;34745;52.276;10.528;2023-04-24T12:37:23;1.83;;;1.70;;
48935;SDS011;34745;52.276;10.528;2023-04-24T12:39:58;2.50;;;1.50;;
48935;SDS011;34745;52.276;10.528;2023-04-24T12:42:27;1.97;;;1.87;;
48935;SDS011;34745;52.276;10.528;2023-04-24T12:44:58;2.10;;;1.87;;
48935;SDS011;34745;52.276;10.528;2023-04-24T12:47:27;4.13;;;1.83;;
48935;SDS011;34745;52.276;10.528;2023-04-24T12:49:54;2.87;;;1.80;;
48935;SDS011;34745;52.276;10.528;2023-04-24T12:52:22;1.80;;;1.70;;
48935;SDS011;34745;52.276;10.528;2023-04-24T12:54:50;1.93;;;1.80;;
48935;SDS011;34745;52.276;10.528;2023-04-24T12:57:19;2.37;;;1.63;;
48935;SDS011;34745;52.276;10.528;2023-04-24T12:59:46;5.00;;;1.80;;
48935;SDS011;34745;52.276;10.528;2023-04-24T13:02:13;1.67;;;1.53;;
48935;SDS011;34745;52.276;10.528;2023-04-24T13:04:43;3.07;;;1.40;;
48935;SDS011;34745;52.276;10.528;2023-04-24T13:07:11;0.80;;;0.80;;
48935;SDS011;34745;52.276;10.528;2023-04-24T13:09:40;0.80;;;0.80;;
48935;SDS011;34745;52.276;10.528;2023-04-24T13:12:07;1.70;;;0.50;;
48935;SDS011;34745;52.276;10.528;2023-04-24T13:14:34;0.60;;;0.60;;
48935;SDS011;34745;52.276;10.528;2023-04-24T13:17:02;0.63;;;0.63;;
48935;SDS011;34745;52.276;10.528;2023-04-24T13:19:29;1.03;;;1.00;;
48935;SDS011;34745;52.276;10.528;2023-04-24T13:22:02;0.90;;;0.90;;
48935;SDS011;34745;52.276;10.528;2023-04-24T13:24:29;1.10;;;1.10;;
48935;SDS011;34745;52.276;10.528;2023-04-24T13:26:59;1.10;;;1.10;;
48935;SDS011;34745;52.276;10.528;2023-04-24T13:29:26;1.33;;;1.23;;
48935;SDS011;34745;52.276;10.528;2023-04-24T13:31:54;1.23;;;1.23;;
48935;SDS011;34745;52.276;10.528;2023-04-24T13:34:21;4.53;;;1.23;;
48935;SDS011;34745;52.276;10.528;2023-04-24T13:36:49;1.20;;;1.20;;
48935;SDS011;34745;52.276;10.528;2023-04-24T13:39:18;1.30;;;1.23;;
48935;SDS011;34745;52.276;10.528;2023-04-24T13:41:46;1.10;;;1.10;;
48935;SDS011;34745;52.276;10.528;2023-04-24T13:44:17;1.23;;;0.90;;
48935;SDS011;34745;52.276;10.528;2023-04-24T13:46:48;1.00;;;1.00;;
48935;SDS011;34745;52.276;10.528;2023-04-24T13:49:17;1.03;;;0.90;;
48935;SDS011;34745;52.276;10.528;2023-04-24T13:51:45;4.03;;;1.10;;
48935;SDS011;34745;52.276;10.528;2023-04-24T13:54:12;1.10;;;1.10;;
48935;SDS011;34745;52.276;10.528;2023-04-24T13:56:39;1.80;;;1.70;;
48935;SDS011;34745;52.276;10.528;2023-04-24T13:59:07;2.00;;;1.70;;
48935;SDS011;34745;52.276;10.528;2023-04-24T14:01:36;1.93;;;1.83;;
48935;SDS011;34745;52.276;10.528;2023-04-24T14:04:03;1.83;;;1.73;;
48935;SDS011;34745;52.276;10.528;2023-04-24T14:06:30;1.70;;;1.60;;
48935;SDS011;34745;52.276;10.528;2023-04-24T14:08:57;1.73;;;1.63;;
48935;SDS011;34745;52.276;10.528;2023-04-24T14:11:24;8.00;;;1.80;;
48935;SDS011;34745;52.276;10.528;2023-04-24T14:13:53;1.03;;;1.03;;
48935;SDS011;34745;52.276;10.528;2023-04-24T14:16:22;1.33;;;1.30;;
48935;SDS011;34745;52.276;10.528;2023-04-24T14:18:50;1.53;;;1.37;;
48935;SDS011;34745;52.276;10.528;2023-04-24T14:21:18;5.00;;;1.40;;
48935;SDS011;34745;52.276;10.528;2023-04-24T14:23:44;3.77;;;1.40;;
48935;SDS011;34745;52.276;10.528;2023-04-24T14:26:12;1.10;;;1.10;;
48935;SDS011;34745;52.276;10.528;2023-04-24T14:28:39;1.10;;;1.10;;
48935;SDS011;34745;52.276;10.528;2023-04-24T14:31:06;1.30;;;1.30;;
48935;SDS011;34745;52.276;10.528;2023-04-24T14:33:34;1.10;;;1.10;;
48935;SDS011;34745;52.276;10.528;2023-04-24T14:36:02;1.20;;;1.20;;
48935;SDS011;34745;52.276;10.528;2023-04-24T14:38:31;1.20;;;1.20;;
48935;SDS011;34745;52.276;10.528;2023-04-24T14:40:59;1.97;;;1.50;;
48935;SDS011;34745;52.276;10.528;2023-04-24T14:43:28;1.40;;;1.30;;
48935;SDS011;34745;52.276;10.528;2023-04-24T14:45:56;0.80;;;0.80;;
48935;SDS011;34745;52.276;10.528;2023-04-24T14:48:23;2.67;;;1.30;;